sensor_id;sensor_type;location;lat;lon;timestamp;pressure;altitude;pressure_sealevel;temperature;humidity
71361;BME280;59166;48.908;1.870;2023-07-28T00:01:37;99627.25;;;18.15;100.00
71361;BME280;59166;48.908;1.870;2023-07-28T00:06:38;99626.28;;;18.11;100.00
71361;BME280;59166;48.908;1.870;2023-07-28T00:11:40;99626.28;;;18.11;100.00
71361;BME280;59166;48.908;1.870;2023-07-28T00:16:41;99623.53;;;18.11;100.00
71361;BME280;59166;48.908;1.870;2023-07-28T00:21:41;99629.00;;;18.11;100.00
71361;BME280;59166;48.908;1.870;2023-07-28T00:26:43;99626.28;;;18.11;100.00
71361;BME280;59166;48.908;1.870;2023-07-28T00:31:44;99632.56;;;18.12;100.00
71361;BME280;59166;48.908;1.870;2023-07-28T00:36:44;99625.63;;;18.14;100.00
71361;BME280;59166;48.908;1.870;2023-07-28T00:41:47;99625.47;;;18.11;100.00
71361;BME280;59166;48.908;1.870;2023-07-28T00:46:47;99620.81;;;18.11;100.00
71361;BME280;59166;48.908;1.870;2023-07-28T00:51:49;99618.56;;;18.13;100.00
71361;BME280;59166;48.908;1.870;2023-07-28T00:56:51;99616.97;;;18.12;100.00
71361;BME280;59166;48.908;1.870;2023-07-28T01:01:52;99622.28;;;18.09;100.00
71361;BME280;59166;48.908;1.870;2023-07-28T01:06:59;99616.81;;;18.09;100.00
71361;BME280;59166;48.908;1.870;2023-07-28T01:12:07;99613.28;;;18.08;100.00
71361;BME280;59166;48.908;1.870;2023-07-28T01:17:08;99614.72;;;18.06;100.00
71361;BME280;59166;48.908;1.870;2023-07-28T01:22:21;99618.94;;;18.03;100.00
71361;BME280;59166;48.908;1.870;2023-07-28T01:27:30;99606.38;;;18.02;100.00
71361;BME280;59166;48.908;1.870;2023-07-28T01:32:31;99613.59;;;18.07;100.00
71361;BME280;59166;48.908;1.870;2023-07-28T01:37:32;99617.63;;;18.01;100.00
71361;BME280;59166;48.908;1.870;2023-07-28T01:42:34;99609.56;;;18.04;100.00
71361;BME280;59166;48.908;1.870;2023-07-28T01:47:35;99613.47;;;18.03;100.00
71361;BME280;59166;48.908;1.870;2023-07-28T01:52:35;99612.31;;;18.04;100.00
71361;BME280;59166;48.908;1.870;2023-07-28T01:57:38;99606.38;;;18.02;100.00
71361;BME280;59166;48.908;1.870;2023-07-28T02:02:39;99605.06;;;18.08;100.00
71361;BME280;59166;48.908;1.870;2023-07-28T02:07:40;99604.75;;;18.01;100.00
71361;BME280;59166;48.908;1.870;2023-07-28T02:12:42;99603.78;;;18.06;100.00
71361;BME280;59166;48.908;1.870;2023-07-28T02:17:43;99593.31;;;18.08;100.00
71361;BME280;59166;48.908;1.870;2023-07-28T02:22:43;99593.47;;;18.11;100.00
71361;BME280;59166;48.908;1.870;2023-07-28T02:27:45;99580.31;;;18.05;100.00
71361;BME280;59166;48.908;1.870;2023-07-28T02:32:46;99584.97;;;18.04;100.00
71361;BME280;59166;48.908;1.870;2023-07-28T02:37:46;99588.50;;;18.13;100.00
71361;BME280;59166;48.908;1.870;2023-07-28T02:42:48;99585.78;;;18.13;100.00
71361;BME280;59166;48.908;1.870;2023-07-28T02:47:49;99586.22;;;18.15;100.00
71361;BME280;59166;48.908;1.870;2023-07-28T02:52:50;99588.34;;;18.18;100.00
71361;BME280;59166;48.908;1.870;2023-07-28T02:57:52;99588.16;;;18.15;100.00
71361;BME280;59166;48.908;1.870;2023-07-28T03:02:52;99596.56;;;18.10;100.00
71361;BME280;59166;48.908;1.870;2023-07-28T03:07:53;99596.69;;;18.13;100.00
71361;BME280;59166;48.908;1.870;2023-07-28T03:12:55;99597.34;;;18.19;100.00
71361;BME280;59166;48.908;1.870;2023-07-28T03:17:56;99599.94;;;18.07;100.00
71361;BME280;59166;48.908;1.870;2023-07-28T03:22:56;99586.13;;;18.03;100.00
71361;BME280;59166;48.908;1.870;2023-07-28T03:27:58;99584.38;;;17.98;100.00
71361;BME280;59166;48.908;1.870;2023-07-28T03:32:59;99568.78;;;17.99;100.00
71361;BME280;59166;48.908;1.870;2023-07-28T03:37:59;99569.56;;;18.00;100.00
71361;BME280;59166;48.908;1.870;2023-07-28T03:43:01;99562.84;;;17.97;100.00
71361;BME280;59166;48.908;1.870;2023-07-28T03:48:02;99565.69;;;18.01;100.00
71361;BME280;59166;48.908;1.870;2023-07-28T03:53:03;99578.59;;;18.00;100.00
71361;BME280;59166;48.908;1.870;2023-07-28T03:58:05;99575.03;;;18.00;100.00
71361;BME280;59166;48.908;1.870;2023-07-28T04:03:05;99578.09;;;17.98;100.00
71361;BME280;59166;48.908;1.870;2023-07-28T04:08:06;99587.91;;;17.99;100.00
71361;BME280;59166;48.908;1.870;2023-07-28T04:13:08;99589.81;;;17.98;100.00
71361;BME280;59166;48.908;1.870;2023-07-28T04:18:08;99592.72;;;18.02;100.00
71361;BME280;59166;48.908;1.870;2023-07-28T04:23:09;99585.63;;;18.01;100.00
71361;BME280;59166;48.908;1.870;2023-07-28T04:28:11;99588.19;;;18.06;100.00
71361;BME280;59166;48.908;1.870;2023-07-28T04:33:12;99588.16;;;18.15;100.00
71361;BME280;59166;48.908;1.870;2023-07-28T04:38:12;99590.59;;;18.16;100.00
71361;BME280;59166;48.908;1.870;2023-07-28T04:43:14;99597.22;;;18.07;100.00
71361;BME280;59166;48.908;1.870;2023-07-28T04:48:15;99601.22;;;18.09;100.00
71361;BME280;59166;48.908;1.870;2023-07-28T04:53:16;99589.00;;;18.07;100.00
71361;BME280;59166;48.908;1.870;2023-07-28T04:58:19;99592.56;;;18.07;100.00
71361;BME280;59166;48.908;1.870;2023-07-28T05:03:19;99597.50;;;18.14;100.00
71361;BME280;59166;48.908;1.870;2023-07-28T05:08:20;99599.91;;;18.15;100.00
71361;BME280;59166;48.908;1.870;2023-07-28T05:13:23;99601.81;;;18.15;100.00
71361;BME280;59166;48.908;1.870;2023-07-28T05:18:24;99602.50;;;18.20;100.00
71361;BME280;59166;48.908;1.870;2023-07-28T05:23:24;99602.00;;;18.18;100.00
71361;BME280;59166;48.908;1.870;2023-07-28T05:28:27;99590.09;;;18.23;100.00
71361;BME280;59166;48.908;1.870;2023-07-28T05:33:28;99603.41;;;18.24;100.00
71361;BME280;59166;48.908;1.870;2023-07-28T05:38:28;99601.84;;;18.23;100.00
71361;BME280;59166;48.908;1.870;2023-07-28T05:43:31;99597.31;;;18.27;100.00
71361;BME280;59166;48.908;1.870;2023-07-28T05:48:32;99604.53;;;18.32;100.00
71361;BME280;59166;48.908;1.870;2023-07-28T05:53:33;99606.66;;;18.26;100.00
71361;BME280;59166;48.908;1.870;2023-07-28T05:58:35;99609.84;;;18.28;100.00
71361;BME280;59166;48.908;1.870;2023-07-28T06:03:36;99609.16;;;18.40;100.00
71361;BME280;59166;48.908;1.870;2023-07-28T06:08:37;99608.22;;;18.36;100.00
71361;BME280;59166;48.908;1.870;2023-07-28T06:13:39;99614.50;;;18.36;100.00
71361;BME280;59166;48.908;1.870;2023-07-28T06:18:40;99620.09;;;18.40;100.00
71361;BME280;59166;48.908;1.870;2023-07-28T06:23:41;99619.75;;;18.50;100.00
71361;BME280;59166;48.908;1.870;2023-07-28T06:28:44;99621.53;;;18.46;100.00
71361;BME280;59166;48.908;1.870;2023-07-28T06:33:46;99618.94;;;18.50;100.00
71361;BME280;59166;48.908;1.870;2023-07-28T06:38:47;99616.19;;;18.50;100.00
71361;BME280;59166;48.908;1.870;2023-07-28T06:43:49;99620.34;;;18.56;100.00
71361;BME280;59166;48.908;1.870;2023-07-28T06:48:50;99628.53;;;18.56;100.00
71361;BME280;59166;48.908;1.870;2023-07-28T06:53:51;99642.72;;;18.58;100.00
71361;BME280;59166;48.908;1.870;2023-07-28T06:58:53;99644.16;;;18.55;100.00
71361;BME280;59166;48.908;1.870;2023-07-28T07:03:54;99654.94;;;18.60;100.00
71361;BME280;59166;48.908;1.870;2023-07-28T07:08:55;99655.25;;;18.59;100.00
71361;BME280;59166;48.908;1.870;2023-07-28T07:13:57;99655.06;;;18.64;100.00
71361;BME280;59166;48.908;1.870;2023-07-28T07:18:58;99663.56;;;18.71;100.00
71361;BME280;59166;48.908;1.870;2023-07-28T07:23:59;99666.09;;;18.76;100.00
71361;BME280;59166;48.908;1.870;2023-07-28T07:29:01;99664.78;;;18.82;100.00
71361;BME280;59166;48.908;1.870;2023-07-28T07:34:02;99662.31;;;18.89;100.00
71361;BME280;59166;48.908;1.870;2023-07-28T07:39:04;99666.50;;;18.95;100.00
71361;BME280;59166;48.908;1.870;2023-07-28T07:44:07;99674.34;;;19.05;100.00
71361;BME280;59166;48.908;1.870;2023-07-28T07:49:07;99668.00;;;19.13;100.00
71361;BME280;59166;48.908;1.870;2023-07-28T07:54:08;99673.44;;;19.22;100.00
71361;BME280;59166;48.908;1.870;2023-07-28T07:59:10;99671.22;;;19.36;100.00
71361;BME280;59166;48.908;1.870;2023-07-28T08:04:11;99664.03;;;19.31;100.00
71361;BME280;59166;48.908;1.870;2023-07-28T08:09:12;99683.00;;;19.36;100.00
71361;BME280;59166;48.908;1.870;2023-07-28T08:14:14;99672.03;;;19.36;100.00
71361;BME280;59166;48.908;1.870;2023-07-28T08:19:15;99673.66;;;19.37;100.00
71361;BME280;59166;48.908;1.870;2023-07-28T08:24:16;99680.66;;;19.47;100.00
71361;BME280;59166;48.908;1.870;2023-07-28T08:29:19;99684.66;;;19.49;100.00
71361;BME280;59166;48.908;1.870;2023-07-28T08:34:19;99687.09;;;19.51;100.00
71361;BME280;59166;48.908;1.870;2023-07-28T08:39:20;99687.22;;;19.55;100.00
71361;BME280;59166;48.908;1.870;2023-07-28T08:44:22;99698.09;;;19.63;100.00
71361;BME280;59166;48.908;1.870;2023-07-28T08:49:23;99691.34;;;19.81;100.00
71361;BME280;59166;48.908;1.870;2023-07-28T08:54:24;99692.19;;;19.94;100.00
71361;BME280;59166;48.908;1.870;2023-07-28T08:59:28;99689.53;;;20.06;100.00
71361;BME280;59166;48.908;1.870;2023-07-28T09:04:29;99694.03;;;20.23;100.00
71361;BME280;59166;48.908;1.870;2023-07-28T09:09:32;99699.53;;;20.35;100.00
71361;BME280;59166;48.908;1.870;2023-07-28T09:14:35;99702.66;;;20.58;100.00
71361;BME280;59166;48.908;1.870;2023-07-28T09:19:49;99706.00;;;20.75;100.00
71361;BME280;59166;48.908;1.870;2023-07-28T09:24:51;99702.44;;;20.75;100.00
71361;BME280;59166;48.908;1.870;2023-07-28T09:29:54;99700.88;;;20.74;100.00
71361;BME280;59166;48.908;1.870;2023-07-28T09:35:06;99700.38;;;20.72;100.00
71361;BME280;59166;48.908;1.870;2023-07-28T09:40:08;99694.00;;;21.28;100.00
71361;BME280;59166;48.908;1.870;2023-07-28T09:45:11;99695.34;;;21.86;100.00
71361;BME280;59166;48.908;1.870;2023-07-28T09:50:15;99684.19;;;22.23;100.00
71361;BME280;59166;48.908;1.870;2023-07-28T09:55:17;99678.69;;;22.38;100.00
71361;BME280;59166;48.908;1.870;2023-07-28T10:00:21;99687.38;;;22.25;100.00
71361;BME280;59166;48.908;1.870;2023-07-28T10:05:24;99685.38;;;22.10;100.00
71361;BME280;59166;48.908;1.870;2023-07-28T10:10:25;99668.94;;;21.97;100.00
71361;BME280;59166;48.908;1.870;2023-07-28T10:15:31;99672.19;;;22.15;100.00
71361;BME280;59166;48.908;1.870;2023-07-28T10:20:34;99664.94;;;22.38;100.00
71361;BME280;59166;48.908;1.870;2023-07-28T10:25:37;99667.38;;;22.12;100.00
71361;BME280;59166;48.908;1.870;2023-07-28T10:30:54;99672.03;;;21.96;100.00
71361;BME280;59166;48.908;1.870;2023-07-28T10:35:56;99672.50;;;21.70;100.00
71361;BME280;59166;48.908;1.870;2023-07-28T10:41:08;99665.75;;;21.56;100.00
71361;BME280;59166;48.908;1.870;2023-07-28T10:46:15;99668.25;;;21.61;100.00
71361;BME280;59166;48.908;1.870;2023-07-28T10:51:22;99672.50;;;21.58;100.00
71361;BME280;59166;48.908;1.870;2023-07-28T10:56:23;99674.69;;;21.52;100.00
71361;BME280;59166;48.908;1.870;2023-07-28T11:01:32;99672.16;;;21.72;100.00
71361;BME280;59166;48.908;1.870;2023-07-28T11:06:33;99668.00;;;21.78;100.00
71361;BME280;59166;48.908;1.870;2023-07-28T11:11:34;99666.16;;;21.82;100.00
71361;BME280;59166;48.908;1.870;2023-07-28T11:16:38;99664.97;;;22.11;100.00
71361;BME280;59166;48.908;1.870;2023-07-28T11:21:40;99657.44;;;23.01;100.00
71361;BME280;59166;48.908;1.870;2023-07-28T11:26:41;99665.03;;;23.39;100.00
71361;BME280;59166;48.908;1.870;2023-07-28T11:31:43;99663.38;;;23.19;100.00
71361;BME280;59166;48.908;1.870;2023-07-28T11:36:44;99657.78;;;23.50;100.00
71361;BME280;59166;48.908;1.870;2023-07-28T11:41:45;99652.25;;;23.70;100.00
71361;BME280;59166;48.908;1.870;2023-07-28T11:46:47;99647.16;;;24.10;100.00
71361;BME280;59166;48.908;1.870;2023-07-28T11:51:49;99645.28;;;23.95;100.00
71361;BME280;59166;48.908;1.870;2023-07-28T11:56:53;99640.41;;;24.08;100.00
71361;BME280;59166;48.908;1.870;2023-07-28T12:01:57;99647.81;;;24.94;100.00
71361;BME280;59166;48.908;1.870;2023-07-28T12:07:08;99646.31;;;25.00;96.97
71361;BME280;59166;48.908;1.870;2023-07-28T12:12:09;99637.56;;;25.51;98.37
71361;BME280;59166;48.908;1.870;2023-07-28T12:17:14;99621.44;;;25.00;95.63
71361;BME280;59166;48.908;1.870;2023-07-28T12:22:14;99620.16;;;25.47;90.17
71361;BME280;59166;48.908;1.870;2023-07-28T12:27:15;99623.81;;;25.28;88.66
71361;BME280;59166;48.908;1.870;2023-07-28T12:32:18;99636.34;;;25.48;91.05
71361;BME280;59166;48.908;1.870;2023-07-28T12:37:19;99618.06;;;25.70;86.97
71361;BME280;59166;48.908;1.870;2023-07-28T12:42:20;99628.81;;;25.79;87.97
71361;BME280;59166;48.908;1.870;2023-07-28T12:47:22;99629.72;;;26.23;89.79
71361;BME280;59166;48.908;1.870;2023-07-28T12:52:24;99624.97;;;26.24;84.10
71361;BME280;59166;48.908;1.870;2023-07-28T12:57:24;99621.97;;;26.90;83.05
71361;BME280;59166;48.908;1.870;2023-07-28T13:02:27;99611.31;;;26.92;78.48
71361;BME280;59166;48.908;1.870;2023-07-28T13:07:27;99619.81;;;26.22;78.83
71361;BME280;59166;48.908;1.870;2023-07-28T13:12:28;99627.06;;;25.64;82.96
71361;BME280;59166;48.908;1.870;2023-07-28T13:17:31;99631.06;;;24.84;87.54
71361;BME280;59166;48.908;1.870;2023-07-28T13:22:32;99634.44;;;24.25;87.53
71361;BME280;59166;48.908;1.870;2023-07-28T13:27:33;99640.81;;;23.68;89.91
71361;BME280;59166;48.908;1.870;2023-07-28T13:32:35;99633.84;;;22.85;100.00
71361;BME280;59166;48.908;1.870;2023-07-28T13:37:36;99657.91;;;21.82;100.00
71361;BME280;59166;48.908;1.870;2023-07-28T13:42:37;99680.06;;;21.21;100.00
71361;BME280;59166;48.908;1.870;2023-07-28T13:47:39;99677.53;;;21.16;100.00
71361;BME280;59166;48.908;1.870;2023-07-28T13:52:40;99665.94;;;21.23;100.00
71361;BME280;59166;48.908;1.870;2023-07-28T13:57:41;99641.00;;;21.56;100.00
71361;BME280;59166;48.908;1.870;2023-07-28T14:02:43;99633.97;;;22.73;100.00
71361;BME280;59166;48.908;1.870;2023-07-28T14:07:44;99634.44;;;23.44;100.00
71361;BME280;59166;48.908;1.870;2023-07-28T14:12:45;99629.03;;;23.71;100.00
71361;BME280;59166;48.908;1.870;2023-07-28T14:17:47;99646.09;;;23.57;100.00
71361;BME280;59166;48.908;1.870;2023-07-28T14:22:48;99633.09;;;23.77;100.00
71361;BME280;59166;48.908;1.870;2023-07-28T14:27:49;99635.25;;;24.06;100.00
71361;BME280;59166;48.908;1.870;2023-07-28T14:32:51;99633.25;;;24.48;100.00
71361;BME280;59166;48.908;1.870;2023-07-28T14:37:52;99638.84;;;25.01;100.00
71361;BME280;59166;48.908;1.870;2023-07-28T14:42:53;99629.13;;;24.84;100.00
71361;BME280;59166;48.908;1.870;2023-07-28T14:47:55;99626.28;;;25.07;100.00
71361;BME280;59166;48.908;1.870;2023-07-28T14:52:58;99615.72;;;25.13;100.00
71361;BME280;59166;48.908;1.870;2023-07-28T14:57:59;99621.59;;;25.41;95.87
71361;BME280;59166;48.908;1.870;2023-07-28T15:03:01;99606.06;;;25.96;96.24
71361;BME280;59166;48.908;1.870;2023-07-28T15:08:02;99618.94;;;25.18;100.00
71361;BME280;59166;48.908;1.870;2023-07-28T15:13:03;99615.16;;;24.51;100.00
71361;BME280;59166;48.908;1.870;2023-07-28T15:18:05;99618.41;;;24.11;100.00
71361;BME280;59166;48.908;1.870;2023-07-28T15:23:06;99607.44;;;23.95;100.00
71361;BME280;59166;48.908;1.870;2023-07-28T15:28:07;99600.34;;;23.75;100.00
71361;BME280;59166;48.908;1.870;2023-07-28T15:33:09;99592.69;;;24.52;100.00
71361;BME280;59166;48.908;1.870;2023-07-28T15:38:10;99592.16;;;24.70;100.00
71361;BME280;59166;48.908;1.870;2023-07-28T15:43:11;99596.56;;;24.02;100.00
71361;BME280;59166;48.908;1.870;2023-07-28T15:48:13;99591.75;;;23.38;100.00
71361;BME280;59166;48.908;1.870;2023-07-28T15:53:14;99602.72;;;23.19;100.00
71361;BME280;59166;48.908;1.870;2023-07-28T15:58:15;99612.34;;;22.90;100.00
71361;BME280;59166;48.908;1.870;2023-07-28T16:03:17;99614.50;;;22.66;100.00
71361;BME280;59166;48.908;1.870;2023-07-28T16:08:18;99634.91;;;22.49;100.00
71361;BME280;59166;48.908;1.870;2023-07-28T16:13:19;99644.84;;;22.38;100.00
71361;BME280;59166;48.908;1.870;2023-07-28T16:18:21;99641.38;;;22.25;100.00
71361;BME280;59166;48.908;1.870;2023-07-28T16:23:22;99625.34;;;22.43;100.00
71361;BME280;59166;48.908;1.870;2023-07-28T16:28:23;99623.09;;;22.48;100.00
71361;BME280;59166;48.908;1.870;2023-07-28T16:33:25;99625.59;;;23.20;100.00
71361;BME280;59166;48.908;1.870;2023-07-28T16:38:26;99612.75;;;24.49;100.00
71361;BME280;59166;48.908;1.870;2023-07-28T16:43:27;99623.63;;;23.97;100.00
71361;BME280;59166;48.908;1.870;2023-07-28T16:48:29;99607.81;;;23.17;100.00
71361;BME280;59166;48.908;1.870;2023-07-28T16:53:30;99601.19;;;23.57;100.00
71361;BME280;59166;48.908;1.870;2023-07-28T16:58:31;99619.59;;;23.91;100.00
71361;BME280;59166;48.908;1.870;2023-07-28T17:03:34;99612.03;;;24.07;100.00
71361;BME280;59166;48.908;1.870;2023-07-28T17:08:34;99587.38;;;24.18;100.00
71361;BME280;59166;48.908;1.870;2023-07-28T17:13:35;99571.84;;;24.10;100.00
71361;BME280;59166;48.908;1.870;2023-07-28T17:18:38;99576.47;;;24.02;100.00
71361;BME280;59166;48.908;1.870;2023-07-28T17:23:39;99570.75;;;23.72;100.00
71361;BME280;59166;48.908;1.870;2023-07-28T17:28:40;99569.22;;;24.17;100.00
71361;BME280;59166;48.908;1.870;2023-07-28T17:33:42;99582.84;;;23.87;100.00
71361;BME280;59166;48.908;1.870;2023-07-28T17:38:43;99593.00;;;23.41;100.00
71361;BME280;59166;48.908;1.870;2023-07-28T17:43:44;99591.28;;;23.17;100.00
71361;BME280;59166;48.908;1.870;2023-07-28T17:48:46;99571.91;;;23.14;100.00
71361;BME280;59166;48.908;1.870;2023-07-28T17:53:47;99580.41;;;23.24;100.00
71361;BME280;59166;48.908;1.870;2023-07-28T17:58:48;99593.31;;;23.20;100.00
71361;BME280;59166;48.908;1.870;2023-07-28T18:03:50;99603.47;;;23.16;100.00
71361;BME280;59166;48.908;1.870;2023-07-28T18:08:51;99603.59;;;23.04;100.00
71361;BME280;59166;48.908;1.870;2023-07-28T18:13:52;99598.91;;;22.89;100.00
71361;BME280;59166;48.908;1.870;2023-07-28T18:18:54;99615.56;;;22.77;100.00
71361;BME280;59166;48.908;1.870;2023-07-28T18:23:55;99614.94;;;22.68;100.00
71361;BME280;59166;48.908;1.870;2023-07-28T18:28:56;99601.16;;;22.68;100.00
71361;BME280;59166;48.908;1.870;2023-07-28T18:33:58;99620.09;;;22.54;100.00
71361;BME280;59166;48.908;1.870;2023-07-28T18:38:59;99617.25;;;22.34;100.00
71361;BME280;59166;48.908;1.870;2023-07-28T18:44:00;99625.22;;;22.08;100.00
71361;BME280;59166;48.908;1.870;2023-07-28T18:49:02;99624.31;;;21.88;100.00
71361;BME280;59166;48.908;1.870;2023-07-28T18:54:03;99632.47;;;21.85;100.00
71361;BME280;59166;48.908;1.870;2023-07-28T18:59:04;99629.03;;;21.76;100.00
71361;BME280;59166;48.908;1.870;2023-07-28T19:04:06;99625.75;;;21.70;100.00
71361;BME280;59166;48.908;1.870;2023-07-28T19:09:07;99623.59;;;21.64;100.00
71361;BME280;59166;48.908;1.870;2023-07-28T19:14:08;99629.34;;;21.59;100.00
71361;BME280;59166;48.908;1.870;2023-07-28T19:19:10;99633.22;;;21.58;100.00
71361;BME280;59166;48.908;1.870;2023-07-28T19:24:11;99649.47;;;21.63;100.00
71361;BME280;59166;48.908;1.870;2023-07-28T19:29:12;99656.34;;;21.69;100.00
71361;BME280;59166;48.908;1.870;2023-07-28T19:34:14;99657.00;;;21.66;100.00
71361;BME280;59166;48.908;1.870;2023-07-28T19:39:15;99656.91;;;21.62;100.00
71361;BME280;59166;48.908;1.870;2023-07-28T19:44:16;99660.94;;;21.52;100.00
71361;BME280;59166;48.908;1.870;2023-07-28T19:49:18;99654.59;;;21.36;100.00
71361;BME280;59166;48.908;1.870;2023-07-28T19:54:19;99664.00;;;21.23;100.00
71361;BME280;59166;48.908;1.870;2023-07-28T19:59:20;99681.44;;;21.03;100.00
71361;BME280;59166;48.908;1.870;2023-07-28T20:04:22;99682.59;;;20.90;100.00
71361;BME280;59166;48.908;1.870;2023-07-28T20:09:23;99692.16;;;20.72;100.00
71361;BME280;59166;48.908;1.870;2023-07-28T20:14:24;99682.56;;;20.54;100.00
71361;BME280;59166;48.908;1.870;2023-07-28T20:19:27;99691.19;;;20.31;100.00
71361;BME280;59166;48.908;1.870;2023-07-28T20:24:27;99684.31;;;20.13;100.00
71361;BME280;59166;48.908;1.870;2023-07-28T20:29:28;99679.84;;;20.00;100.00
71361;BME280;59166;48.908;1.870;2023-07-28T20:34:30;99670.59;;;19.92;100.00
71361;BME280;59166;48.908;1.870;2023-07-28T20:39:31;99681.38;;;19.77;100.00
71361;BME280;59166;48.908;1.870;2023-07-28T20:44:32;99683.06;;;19.69;100.00
71361;BME280;59166;48.908;1.870;2023-07-28T20:49:34;99670.09;;;19.58;100.00
71361;BME280;59166;48.908;1.870;2023-07-28T20:54:35;99678.06;;;19.51;100.00
71361;BME280;59166;48.908;1.870;2023-07-28T20:59:36;99674.59;;;19.41;100.00
71361;BME280;59166;48.908;1.870;2023-07-28T21:04:39;99690.09;;;19.37;100.00
71361;BME280;59166;48.908;1.870;2023-07-28T21:09:39;99674.31;;;19.34;100.00
71361;BME280;59166;48.908;1.870;2023-07-28T21:14:40;99681.81;;;19.25;100.00
71361;BME280;59166;48.908;1.870;2023-07-28T21:19:43;99692.28;;;19.23;100.00
71361;BME280;59166;48.908;1.870;2023-07-28T21:24:44;99692.47;;;19.18;100.00
71361;BME280;59166;48.908;1.870;2023-07-28T21:29:45;99700.34;;;19.20;100.00
71361;BME280;59166;48.908;1.870;2023-07-28T21:34:47;99697.59;;;19.20;100.00
71361;BME280;59166;48.908;1.870;2023-07-28T21:39:48;99697.28;;;19.21;100.00
71361;BME280;59166;48.908;1.870;2023-07-28T21:44:49;99710.97;;;19.21;100.00
71361;BME280;59166;48.908;1.870;2023-07-28T21:49:52;99708.91;;;19.18;100.00
71361;BME280;59166;48.908;1.870;2023-07-28T21:54:53;99690.72;;;19.14;100.00
71361;BME280;59166;48.908;1.870;2023-07-28T21:59:54;99685.09;;;19.10;100.00
71361;BME280;59166;48.908;1.870;2023-07-28T22:04:56;99679.31;;;19.03;100.00
71361;BME280;59166;48.908;1.870;2023-07-28T22:09:57;99674.06;;;18.98;100.00
71361;BME280;59166;48.908;1.870;2023-07-28T22:14:58;99677.72;;;19.02;100.00
71361;BME280;59166;48.908;1.870;2023-07-28T22:20:00;99682.41;;;19.02;100.00
71361;BME280;59166;48.908;1.870;2023-07-28T22:25:01;99686.28;;;19.01;100.00
71361;BME280;59166;48.908;1.870;2023-07-28T22:30:02;99689.47;;;19.03;100.00
71361;BME280;59166;48.908;1.870;2023-07-28T22:35:05;99688.19;;;19.00;100.00
71361;BME280;59166;48.908;1.870;2023-07-28T22:40:07;99699.34;;;18.95;100.00
71361;BME280;59166;48.908;1.870;2023-07-28T22:45:09;99709.94;;;18.96;100.00
71361;BME280;59166;48.908;1.870;2023-07-28T22:50:11;99714.16;;;18.94;100.00
71361;BME280;59166;48.908;1.870;2023-07-28T22:55:12;99710.78;;;18.88;100.00
71361;BME280;59166;48.908;1.870;2023-07-28T23:00:13;99709.53;;;18.86;100.00
71361;BME280;59166;48.908;1.870;2023-07-28T23:05:15;99708.41;;;18.87;100.00
71361;BME280;59166;48.908;1.870;2023-07-28T23:10:16;99714.81;;;18.91;100.00
71361;BME280;59166;48.908;1.870;2023-07-28T23:15:17;99713.34;;;18.93;100.00
71361;BME280;59166;48.908;1.870;2023-07-28T23:20:19;99713.16;;;18.98;100.00
71361;BME280;59166;48.908;1.870;2023-07-28T23:25:20;99709.63;;;18.98;100.00
71361;BME280;59166;48.908;1.870;2023-07-28T23:30:21;99708.69;;;18.94;100.00
71361;BME280;59166;48.908;1.870;2023-07-28T23:35:23;99714.69;;;18.87;100.00
71361;BME280;59166;48.908;1.870;2023-07-28T23:40:24;99708.72;;;18.85;100.00
71361;BME280;59166;48.908;1.870;2023-07-28T23:45:25;99695.41;;;18.75;100.00
71361;BME280;59166;48.908;1.870;2023-07-28T23:50:27;99698.47;;;18.74;100.00
71361;BME280;59166;48.908;1.870;2023-07-28T23:55:28;99693.00;;;18.74;100.00
